createdAt,value
2022-10-06T00:00:53.578Z,99241.99
2022-10-06T00:01:53.611Z,99248.3
2022-10-06T00:02:53.673Z,99241.41
2022-10-06T00:03:53.600Z,99239.04
2022-10-06T00:04:53.606Z,99242.03
2022-10-06T00:05:58.539Z,99237.83
2022-10-06T00:06:55.172Z,99237.51
2022-10-06T00:07:55.208Z,99238.08
2022-10-06T00:08:55.187Z,99233.71
2022-10-06T00:09:55.185Z,99233.25
2022-10-06T00:10:55.916Z,99234.2
2022-10-06T00:11:55.236Z,99237.5
2022-10-06T00:12:55.341Z,99234.61
2022-10-06T00:13:55.510Z,99238.75
2022-10-06T00:14:55.257Z,99236.64
2022-10-06T00:15:55.784Z,99234.39
2022-10-06T00:16:55.497Z,99229.31
2022-10-06T00:17:56.080Z,99230.58
2022-10-06T00:18:55.357Z,99231.3
2022-10-06T00:19:55.536Z,99228.7
2022-10-06T00:20:59.762Z,99229.36
2022-10-06T00:21:56.408Z,99225.45
2022-10-06T00:22:56.440Z,99229.59
2022-10-06T00:23:56.449Z,99226.23
2022-10-06T00:24:56.405Z,99222.96
2022-10-06T00:25:56.901Z,99224.91
2022-10-06T00:26:56.474Z,99224.89
2022-10-06T00:27:56.508Z,99228.12
2022-10-06T00:28:56.554Z,99227.23
2022-10-06T00:29:56.507Z,99230.25
2022-10-06T00:30:56.628Z,99225.02
2022-10-06T00:31:56.539Z,99226.45
2022-10-06T00:32:57.917Z,99224.27
2022-10-06T00:33:56.568Z,99223.41
2022-10-06T00:34:56.809Z,99227.55
2022-10-06T00:35:57.462Z,99224.17
2022-10-06T00:36:56.861Z,99225.66
2022-10-06T00:37:56.643Z,99230.16
2022-10-06T00:38:56.898Z,99231.03
2022-10-06T00:39:56.633Z,99223.8
2022-10-06T00:40:56.654Z,99231.61
2022-10-06T00:41:56.649Z,99229.95
2022-10-06T00:43:01.283Z,99228.17
2022-10-06T00:43:58.426Z,99222.73
2022-10-06T00:45:00.098Z,99223.61
2022-10-06T00:45:58.064Z,99223.3
2022-10-06T00:46:58.007Z,99226.66
2022-10-06T00:47:59.448Z,99225.86
2022-10-06T00:49:59.679Z,99224.66
2022-10-06T00:50:59.167Z,99226.59
2022-10-06T00:52:02.565Z,99224.02
2022-10-06T00:52:59.551Z,99219.39
2022-10-06T00:54:00.394Z,99221.04
2022-10-06T00:54:59.424Z,99216.34
2022-10-06T00:55:59.273Z,99213.23
2022-10-06T00:56:59.401Z,99214.42
2022-10-06T00:57:59.918Z,99217.5
2022-10-06T00:58:59.250Z,99211.08
2022-10-06T00:59:59.592Z,99210.66
2022-10-06T01:00:59.522Z,99214.11
2022-10-06T01:03:09.601Z,99211.74
2022-10-06T01:04:08.212Z,99211.74
2022-10-06T01:05:08.845Z,99207.2
2022-10-06T01:06:06.945Z,99209.87
2022-10-06T01:07:06.840Z,99208.73
2022-10-06T01:08:06.316Z,99205.92
2022-10-06T01:09:06.338Z,99201.86
2022-10-06T01:10:06.978Z,99200.41
2022-10-06T01:11:10.425Z,99202.12
2022-10-06T01:12:08.100Z,99197.84
2022-10-06T01:13:07.870Z,99206.03
2022-10-06T01:14:07.104Z,99205.24
2022-10-06T01:15:07.667Z,99205.59
2022-10-06T01:16:18.259Z,99208.72
2022-10-06T01:17:14.169Z,99210.53
2022-10-06T01:18:12.953Z,99204.88
2022-10-06T01:19:16.945Z,99209.2
2022-10-06T01:20:15.352Z,99206.51
2022-10-06T01:22:17.810Z,99205.12
2022-10-06T01:23:16.453Z,99211.73
2022-10-06T01:24:17.426Z,99211.97
2022-10-06T01:25:17.306Z,99211.36
2022-10-06T01:26:17.716Z,99208.52
2022-10-06T01:27:16.349Z,99207.43
2022-10-06T01:28:16.227Z,99205.68
2022-10-06T01:29:16.509Z,99204.66
2022-10-06T01:30:18.783Z,99202.31
2022-10-06T01:31:16.400Z,99197.78
2022-10-06T01:32:16.249Z,99200.33
2022-10-06T01:33:16.442Z,99193.92
2022-10-06T01:34:16.250Z,99188.86
2022-10-06T01:35:16.453Z,99192.59
2022-10-06T01:36:16.236Z,99185.15
2022-10-06T01:37:16.626Z,99190.52
2022-10-06T01:38:16.890Z,99188.16
2022-10-06T01:39:16.302Z,99188.39
2022-10-06T01:40:16.705Z,99183.2
2022-10-06T01:41:16.308Z,99179.23
2022-10-06T01:42:16.575Z,99177.94
2022-10-06T01:43:16.335Z,99181.92
2022-10-06T01:44:16.354Z,99181.28
2022-10-06T01:45:16.716Z,99184.22
2022-10-06T01:46:16.435Z,99186.72
2022-10-06T01:47:16.391Z,99180.53
2022-10-06T01:48:16.425Z,99184.77
2022-10-06T01:49:16.410Z,99186.41
2022-10-06T01:50:16.664Z,99185.88
2022-10-06T01:51:16.438Z,99186.56
2022-10-06T01:52:16.447Z,99188.48
2022-10-06T01:53:16.924Z,99187.84
2022-10-06T01:54:16.491Z,99186.62
2022-10-06T01:55:16.513Z,99185.69
2022-10-06T01:56:16.519Z,99183.39
2022-10-06T01:57:16.514Z,99178.36
2022-10-06T01:58:16.585Z,99179.16
2022-10-06T01:59:16.613Z,99178.45
2022-10-06T02:00:17.553Z,99178.53
2022-10-06T02:01:16.770Z,99179.9
2022-10-06T02:02:16.595Z,99180.14
2022-10-06T02:03:16.688Z,99181.02
2022-10-06T02:04:16.871Z,99174.52
2022-10-06T02:05:16.800Z,99175.34
2022-10-06T02:06:16.674Z,99175.89
2022-10-06T02:07:16.630Z,99175.35
2022-10-06T02:08:16.647Z,99177.25
2022-10-06T02:09:16.734Z,99177.84
2022-10-06T02:10:16.701Z,99178.08
2022-10-06T02:11:16.676Z,99178.72
2022-10-06T02:12:16.713Z,99182.72
2022-10-06T02:13:16.687Z,99177.95
2022-10-06T02:14:16.995Z,99182.11
2022-10-06T02:15:16.940Z,99177.47
2022-10-06T02:16:16.830Z,99173.9
2022-10-06T02:17:16.765Z,99166.47
2022-10-06T02:18:16.791Z,99166.21
2022-10-06T02:19:16.857Z,99166.11
2022-10-06T02:20:16.831Z,99167.4
2022-10-06T02:21:18.613Z,99167.23
2022-10-06T02:22:17.081Z,99162.34
2022-10-06T02:23:17.025Z,99158.47
2022-10-06T02:24:16.904Z,99161.16
2022-10-06T02:25:16.893Z,99161.02
2022-10-06T02:26:17.633Z,99159.5
2022-10-06T02:27:16.884Z,99157.77
2022-10-06T02:28:17.012Z,99157.65
2022-10-06T02:29:16.920Z,99157.54
2022-10-06T02:30:17.196Z,99157.42
2022-10-06T02:31:17.221Z,99158.67
2022-10-06T02:32:16.949Z,99153.3
2022-10-06T02:33:16.955Z,99150.86
2022-10-06T02:34:17.008Z,99158.54
2022-10-06T02:35:16.998Z,99150.47
2022-10-06T02:36:17.379Z,99147.41
2022-10-06T02:37:17.117Z,99145.17
2022-10-06T02:38:17.020Z,99144.93
2022-10-06T02:39:17.099Z,99144.64
2022-10-06T02:40:17.506Z,99143.03
2022-10-06T02:41:17.085Z,99138.66
2022-10-06T02:42:17.068Z,99142.17
2022-10-06T02:43:17.352Z,99146.16
2022-10-06T02:44:17.206Z,99136.34
2022-10-06T02:45:17.134Z,99140.03
2022-10-06T02:46:17.192Z,99138.91
2022-10-06T02:47:17.159Z,99131.97
2022-10-06T02:48:17.150Z,99131.61
2022-10-06T02:49:17.167Z,99128.55
2022-10-06T02:50:17.359Z,99135.38
2022-10-06T02:51:18.095Z,99131.08
2022-10-06T02:52:17.186Z,99131.65
2022-10-06T02:53:17.225Z,99134.09
2022-10-06T02:54:17.399Z,99130.92
2022-10-06T02:55:17.243Z,99135.03
2022-10-06T02:56:21.454Z,99138.05
2022-10-06T02:57:17.639Z,99137.38
2022-10-06T02:58:17.672Z,99135.86
2022-10-06T02:59:17.655Z,99133.47
2022-10-06T03:00:17.890Z,99133.69
2022-10-06T03:01:19.158Z,99133.67
2022-10-06T03:02:17.924Z,99135.58
2022-10-06T03:03:17.748Z,99135.55
2022-10-06T03:04:17.740Z,99130.07
2022-10-06T03:05:17.715Z,99135.59
2022-10-06T03:06:19.527Z,99131.8
2022-10-06T03:07:17.797Z,99135.03
2022-10-06T03:08:17.779Z,99133.09
2022-10-06T03:09:17.794Z,99131.62
2022-10-06T03:10:17.790Z,99129.78
2022-10-06T03:11:18.375Z,99133.39
2022-10-06T03:12:17.892Z,99129.22
2022-10-06T03:13:17.822Z,99132.23
2022-10-06T03:14:21.683Z,99132.88
2022-10-06T03:15:18.359Z,99133.66
2022-10-06T03:16:22.847Z,99131.16
2022-10-06T03:17:19.224Z,99130.02
2022-10-06T03:18:19.231Z,99124.5
2022-10-06T03:19:19.214Z,99129.05
2022-10-06T03:20:19.220Z,99130.98
2022-10-06T03:21:20.042Z,99128.21
2022-10-06T03:22:19.277Z,99124.84
2022-10-06T03:23:19.244Z,99127.38
2022-10-06T03:24:19.272Z,99128.81
2022-10-06T03:25:19.295Z,99132.97
2022-10-06T03:26:20.600Z,99121.72
2022-10-06T03:27:19.410Z,99123.8
2022-10-06T03:28:19.400Z,99126.48
2022-10-06T03:29:19.345Z,99121.23
2022-10-06T03:30:19.361Z,99120.66
2022-10-06T03:31:19.486Z,99121.97
2022-10-06T03:32:19.428Z,99120.27
2022-10-06T03:33:19.388Z,99117.67
2022-10-06T03:34:19.393Z,99119.36
2022-10-06T03:35:19.450Z,99119.57
2022-10-06T03:36:20.664Z,99120.96
2022-10-06T03:37:20.340Z,99122.05
2022-10-06T03:38:19.458Z,99117.94
2022-10-06T03:39:19.493Z,99115.58
2022-10-06T03:40:19.506Z,99115.25
2022-10-06T03:41:20.876Z,99111.08
2022-10-06T03:42:19.541Z,99114.58
2022-10-06T03:43:19.579Z,99112.97
2022-10-06T03:44:19.540Z,99110.3
2022-10-06T03:45:19.974Z,99110.94
2022-10-06T03:46:20.685Z,99107.3
2022-10-06T03:47:19.592Z,99108.05
2022-10-06T03:48:19.790Z,99110.2
2022-10-06T03:49:19.622Z,99099.77
2022-10-06T03:50:19.621Z,99100.74
2022-10-06T03:51:21.088Z,99096.7
2022-10-06T03:52:25.043Z,99099.53
2022-10-06T03:53:22.206Z,99094.14
2022-10-06T03:54:22.156Z,99093.42
2022-10-06T03:55:22.184Z,99090.94
2022-10-06T03:56:23.447Z,99094.7
2022-10-06T03:57:22.213Z,99092.08
2022-10-06T03:58:22.229Z,99092.17
2022-10-06T03:59:22.313Z,99091.05
2022-10-06T04:00:22.265Z,99089.02
2022-10-06T04:01:26.960Z,99090.39
2022-10-06T04:02:23.312Z,99092.78
2022-10-06T04:03:23.315Z,99089.36
2022-10-06T04:04:23.344Z,99091.45
2022-10-06T04:05:23.321Z,99092.85
2022-10-06T04:06:24.139Z,99091.16
2022-10-06T04:07:23.378Z,99085.98
2022-10-06T04:08:24.309Z,99088.55
2022-10-06T04:09:23.434Z,99079.45
2022-10-06T04:10:23.396Z,99084.31
2022-10-06T04:11:24.983Z,99082.39
2022-10-06T04:12:23.431Z,99088.42
2022-10-06T04:13:23.468Z,99082.33
2022-10-06T04:14:23.497Z,99084.78
2022-10-06T04:15:23.464Z,99085.32
2022-10-06T04:16:24.655Z,99086.67
2022-10-06T04:17:23.489Z,99080.88
2022-10-06T04:18:23.801Z,99086.09
2022-10-06T04:19:23.539Z,99082.88
2022-10-06T04:20:23.549Z,99088.18
2022-10-06T04:21:24.647Z,99088.28
2022-10-06T04:22:23.773Z,99086.41
2022-10-06T04:23:23.635Z,99092.81
2022-10-06T04:24:23.659Z,99091.91
2022-10-06T04:25:23.634Z,99096.59
2022-10-06T04:26:25.210Z,99095.34
2022-10-06T04:27:23.879Z,99095.91
2022-10-06T04:28:23.762Z,99091.92
2022-10-06T04:29:23.739Z,99092.59
2022-10-06T04:30:26.507Z,99090.76
2022-10-06T04:31:27.895Z,99092.41
2022-10-06T04:32:24.278Z,99084.58
2022-10-06T04:33:24.422Z,99089.72
2022-10-06T04:34:24.281Z,99087.01
2022-10-06T04:35:24.251Z,99093.52
2022-10-06T04:36:25.866Z,99090.64
2022-10-06T04:37:24.417Z,99088.88
2022-10-06T04:38:24.294Z,99089.27
2022-10-06T04:39:24.465Z,99086.11
2022-10-06T04:40:24.352Z,99090.96
2022-10-06T04:41:28.539Z,99086.85
2022-10-06T04:42:24.738Z,99083.62
2022-10-06T04:43:24.738Z,99088.38
2022-10-06T04:44:24.920Z,99090.92
2022-10-06T04:45:24.768Z,99082.48
2022-10-06T04:47:26.739Z,99082.9
2022-10-06T04:48:28.045Z,99079.95
2022-10-06T04:49:26.962Z,99081.84
2022-10-06T04:50:27.077Z,99079.27
2022-10-06T04:51:27.121Z,99075.78
2022-10-06T04:52:26.751Z,99079.6
2022-10-06T04:53:27.828Z,99073.5
2022-10-06T04:54:31.367Z,99070.94
2022-10-06T04:55:29.724Z,99074.56
2022-10-06T04:56:30.312Z,99076.73
2022-10-06T04:57:29.723Z,99073.03
2022-10-06T04:58:31.751Z,99071.62
2022-10-06T04:59:29.776Z,99067.98
2022-10-06T05:00:29.844Z,99067.28
2022-10-06T05:01:31.457Z,99062.93
2022-10-06T05:02:29.878Z,99068.42
2022-10-06T05:03:30.490Z,99063.77
2022-10-06T05:04:30.377Z,99059.17
2022-10-06T05:05:30.757Z,99056.84
2022-10-06T05:06:31.516Z,99058.33
2022-10-06T05:07:29.861Z,99059.28
2022-10-06T05:08:30.460Z,99052.53
2022-10-06T05:09:29.908Z,99053.8
2022-10-06T05:10:29.921Z,99046.71
2022-10-06T05:11:30.333Z,99050.05
2022-10-06T05:12:29.951Z,99043.44
2022-10-06T05:13:30.580Z,99043.35
2022-10-06T05:14:29.989Z,99041.29
2022-10-06T05:15:30.000Z,99043.13
2022-10-06T05:16:30.724Z,99038.39
2022-10-06T05:17:30.049Z,99040.94
2022-10-06T05:18:31.480Z,99039.55
2022-10-06T05:19:30.070Z,99030.84
2022-10-06T05:20:30.091Z,99035.01
2022-10-06T05:21:31.176Z,99033.59
2022-10-06T05:22:30.116Z,99032.54
2022-10-06T05:23:31.188Z,99034.8
2022-10-06T05:24:30.151Z,99035.52
2022-10-06T05:25:30.170Z,99044.05
2022-10-06T05:26:31.126Z,99042.07
2022-10-06T05:27:30.199Z,99037.66
2022-10-06T05:28:31.060Z,99047.95
2022-10-06T05:29:30.221Z,99047.61
2022-10-06T05:30:30.255Z,99035.11
2022-10-06T05:31:31.087Z,99044.55
2022-10-06T05:32:35.140Z,99048.22
2022-10-06T05:33:33.561Z,99050.71
2022-10-06T05:34:32.200Z,99043.88
2022-10-06T05:35:32.248Z,99043.91
2022-10-06T05:36:32.838Z,99043.12
2022-10-06T05:37:32.510Z,99044.59
2022-10-06T05:38:33.051Z,99040.58
2022-10-06T05:39:32.315Z,99047.11
2022-10-06T05:40:32.562Z,99039.78
2022-10-06T05:41:32.974Z,99047.11
2022-10-06T05:42:32.356Z,99049.19
2022-10-06T05:43:33.318Z,99042.91
2022-10-06T05:44:32.428Z,99048.05
2022-10-06T05:45:32.478Z,99045.61
2022-10-06T05:46:33.106Z,99048.36
2022-10-06T05:47:32.458Z,99044.72
2022-10-06T05:48:32.808Z,99039.27
2022-10-06T05:49:32.583Z,99038.5
2022-10-06T05:50:32.482Z,99045.41
2022-10-06T05:51:33.248Z,99041.2
2022-10-06T05:52:32.530Z,99045.3
2022-10-06T05:53:33.501Z,99038.92
2022-10-06T05:54:32.569Z,99040.91
2022-10-06T05:55:32.576Z,99038.45
2022-10-06T05:56:37.066Z,99039.09
2022-10-06T05:57:33.240Z,99039.2
2022-10-06T05:58:34.644Z,99038.69
2022-10-06T05:59:33.344Z,99045.17
2022-10-06T06:00:33.294Z,99043.97
2022-10-06T06:01:34.484Z,99043.44
2022-10-06T06:02:33.401Z,99042.1
2022-10-06T06:03:33.357Z,99043.48
2022-10-06T06:04:33.397Z,99045.66
2022-10-06T06:05:33.411Z,99046.77
2022-10-06T06:06:34.829Z,99044.09
2022-10-06T06:07:33.424Z,99047.28
2022-10-06T06:08:33.595Z,99041.15
2022-10-06T06:09:33.496Z,99042.2
2022-10-06T06:10:33.486Z,99045.06
2022-10-06T06:11:34.087Z,99047.95
2022-10-06T06:12:33.530Z,99036.48
2022-10-06T06:13:34.109Z,99036.88
2022-10-06T06:14:33.516Z,99040.98
2022-10-06T06:15:33.568Z,99037.94
2022-10-06T06:16:34.277Z,99040.52
2022-10-06T06:17:33.586Z,99040.27
2022-10-06T06:18:35.686Z,99038.02
2022-10-06T06:19:33.609Z,99038.15
2022-10-06T06:20:33.641Z,99035.89
2022-10-06T06:21:33.698Z,99047.38
2022-10-06T06:22:33.678Z,99044.56
2022-10-06T06:23:37.758Z,99040.8
2022-10-06T06:24:33.953Z,99044.08
2022-10-06T06:25:34.013Z,99044.23
2022-10-06T06:26:35.755Z,99039.37
2022-10-06T06:27:34.185Z,99036.77
2022-10-06T06:28:34.857Z,99039.66
2022-10-06T06:29:34.036Z,99040.88
2022-10-06T06:30:34.294Z,99038.12
2022-10-06T06:31:35.183Z,99043.16
2022-10-06T06:32:34.092Z,99042.98
2022-10-06T06:33:34.589Z,99040.86
2022-10-06T06:34:34.104Z,99041.3
2022-10-06T06:35:36.364Z,99041.42
2022-10-06T06:36:35.713Z,99040.78
2022-10-06T06:37:34.408Z,99037.08
2022-10-06T06:38:34.155Z,99040.08
2022-10-06T06:39:34.607Z,99035.38
2022-10-06T06:40:34.198Z,99041.35
2022-10-06T06:41:35.983Z,99039.29
2022-10-06T06:42:34.232Z,99044.13
2022-10-06T06:43:34.311Z,99035.59
2022-10-06T06:44:34.308Z,99033.2
2022-10-06T06:45:34.280Z,99031.97
2022-10-06T06:47:34.360Z,99033.34
2022-10-06T06:48:34.345Z,99035.53
2022-10-06T06:49:34.339Z,99038.38
2022-10-06T06:50:34.384Z,99039.33
2022-10-06T06:51:35.848Z,99030.6
2022-10-06T06:52:34.653Z,99032.14
2022-10-06T06:53:34.685Z,99031.62
2022-10-06T06:54:34.457Z,99028.45
2022-10-06T06:55:34.439Z,99035.92
2022-10-06T06:56:35.300Z,99034.75
2022-10-06T06:57:34.497Z,99035.41
2022-10-06T06:58:37.848Z,99034.78
2022-10-06T06:59:34.507Z,99027.8
2022-10-06T07:00:36.325Z,99027.11
2022-10-06T07:01:34.600Z,99028.72
2022-10-06T07:02:34.612Z,99031.69
2022-10-06T07:03:56.175Z,99027.2
2022-10-06T07:04:35.884Z,99024.27
2022-10-06T07:05:35.896Z,99022.17
2022-10-06T07:06:37.609Z,99022.55
2022-10-06T07:07:35.995Z,99023.17
2022-10-06T07:08:36.938Z,99024.07
2022-10-06T07:09:35.956Z,99019.34
2022-10-06T07:10:36.144Z,99019.66
2022-10-06T07:11:37.381Z,99022.58
2022-10-06T07:12:36.049Z,99024.42
2022-10-06T07:13:36.007Z,99022.03
2022-10-06T07:14:36.012Z,99021.69
2022-10-06T07:15:36.086Z,99022.23
2022-10-06T07:16:36.069Z,99026.02
2022-10-06T07:17:36.123Z,99029.27
2022-10-06T07:18:36.330Z,99024.35
2022-10-06T07:19:36.111Z,99020.37
2022-10-06T07:20:36.162Z,99019.28
2022-10-06T07:21:36.142Z,99025.09
2022-10-06T07:22:36.184Z,99021.69
2022-10-06T07:23:36.481Z,99013.48
2022-10-06T07:24:36.329Z,99016.53
2022-10-06T07:25:36.198Z,99023.26
2022-10-06T07:26:36.206Z,99020.59
2022-10-06T07:27:37.696Z,99008.7
2022-10-06T07:28:36.307Z,99013.12
2022-10-06T07:29:36.738Z,99010.19
2022-10-06T07:30:40.732Z,99008.3
2022-10-06T07:31:37.359Z,99009.55
2022-10-06T07:32:37.364Z,99010.03
2022-10-06T07:33:37.347Z,99013.35
2022-10-06T07:34:37.666Z,99004.05
2022-10-06T07:35:38.668Z,99008.86
2022-10-06T07:36:37.421Z,99008.91
2022-10-06T07:37:38.965Z,98997.44
2022-10-06T07:38:37.730Z,98999.61
2022-10-06T07:39:37.458Z,98998.44
2022-10-06T07:40:40.206Z,98995.31
2022-10-06T07:41:37.614Z,98997.1
2022-10-06T07:42:39.113Z,98989.52
2022-10-06T07:43:37.636Z,98994.38
2022-10-06T07:44:37.661Z,98995.19
2022-10-06T07:45:37.725Z,98990.14
2022-10-06T07:46:37.665Z,98995.97
2022-10-06T07:47:37.728Z,98991.48
2022-10-06T07:48:37.742Z,98989.97
2022-10-06T07:49:37.770Z,98993.73
2022-10-06T07:50:38.621Z,98992.17
2022-10-06T07:51:37.840Z,98987.41
2022-10-06T07:52:37.793Z,98990.45
2022-10-06T07:53:37.816Z,98995.27
2022-10-06T07:54:37.843Z,98994.34
2022-10-06T07:55:38.700Z,98992.72
2022-10-06T07:56:37.835Z,98986.5
2022-10-06T07:57:37.883Z,98979.58
2022-10-06T07:58:38.599Z,98989.44
2022-10-06T07:59:37.914Z,98986.31
2022-10-06T08:00:37.905Z,98979.88
2022-10-06T08:01:38.646Z,98986.89
2022-10-06T08:02:38.217Z,98982.3
2022-10-06T08:03:38.660Z,98992.69
2022-10-06T08:04:38.208Z,98985.38
2022-10-06T08:05:38.389Z,98983.93
2022-10-06T08:06:38.333Z,98982.69
2022-10-06T08:07:38.008Z,98985.67
2022-10-06T08:08:38.105Z,98984.67
2022-10-06T08:09:38.104Z,98981.77
2022-10-06T08:10:38.069Z,98970.09
2022-10-06T08:11:38.087Z,98970.86
2022-10-06T08:12:38.227Z,98978.88
2022-10-06T08:13:39.327Z,98986
2022-10-06T08:14:38.178Z,98985.77
2022-10-06T08:15:38.174Z,98978.48
2022-10-06T08:16:38.241Z,98982.01
2022-10-06T08:17:38.323Z,98987.83
2022-10-06T08:18:46.413Z,98983.73
2022-10-06T08:19:38.441Z,98980.09
2022-10-06T08:20:38.302Z,98975.68
2022-10-06T08:21:38.312Z,98961.43
2022-10-06T08:22:38.686Z,98967.34
2022-10-06T08:23:38.317Z,98971.98
2022-10-06T08:25:04.140Z,98974.31
2022-10-06T08:25:40.050Z,98979.75
2022-10-06T08:26:39.481Z,98980.84
2022-10-06T08:27:39.504Z,98975.08
2022-10-06T08:28:40.463Z,98973.2
2022-10-06T08:29:39.749Z,98974.13
2022-10-06T08:30:39.991Z,98979.48
2022-10-06T08:31:39.679Z,98976.95
2022-10-06T08:32:39.611Z,98983.18
2022-10-06T08:33:39.910Z,98980.51
2022-10-06T08:34:39.730Z,98982.5
2022-10-06T08:35:39.900Z,98983.92
2022-10-06T08:36:44.935Z,98981.48
2022-10-06T08:37:43.857Z,98983.76
2022-10-06T08:38:43.890Z,98981
2022-10-06T08:39:43.520Z,98989.64
2022-10-06T08:40:44.709Z,98984.94
2022-10-06T08:41:49.077Z,98986.69
2022-10-06T08:42:49.716Z,98980.23
2022-10-06T08:43:48.878Z,98978.2
2022-10-06T08:44:48.019Z,98985.1
2022-10-06T08:45:47.121Z,98982.66
2022-10-06T08:48:47.960Z,98977.75
2022-10-06T08:49:48.112Z,98980.02
2022-10-06T08:51:52.516Z,98976.93
2022-10-06T08:56:06.245Z,98964.81
2022-10-06T08:57:03.738Z,98964.39
2022-10-06T08:59:04.619Z,98955.02
2022-10-06T09:05:14.939Z,98940.29
2022-10-06T09:06:21.677Z,98938.64
2022-10-06T09:16:40.003Z,98933.64
2022-10-06T09:17:40.885Z,98927.96
2022-10-06T09:19:06.674Z,98942.59
2022-10-06T09:19:43.317Z,98935.69
2022-10-06T09:20:49.559Z,98927.28
2022-10-06T09:21:52.747Z,98930.72
2022-10-06T09:22:50.276Z,98947.08
2022-10-06T09:23:58.250Z,98946.08
2022-10-06T09:24:53.679Z,98929.09
2022-10-06T09:25:49.887Z,98936.39
2022-10-06T09:26:50.916Z,98936.48
2022-10-06T09:27:53.054Z,98935.78
2022-10-06T09:28:50.806Z,98935.77
2022-10-06T09:29:50.805Z,98936.44
2022-10-06T09:30:54.560Z,98927.35
2022-10-06T09:31:51.700Z,98937.06
2022-10-06T09:32:54.625Z,98931.33
2022-10-06T09:33:53.099Z,98932.46
2022-10-06T09:34:53.289Z,98934
2022-10-06T09:38:04.408Z,98928.16
2022-10-06T09:38:59.872Z,98935.98
2022-10-06T09:39:59.491Z,98933.51
2022-10-06T09:40:59.199Z,98927.23
2022-10-06T09:42:03.523Z,98930.94
2022-10-06T09:43:00.735Z,98914.53
2022-10-06T09:44:04.829Z,98914.33
2022-10-06T09:48:20.977Z,98922.62
2022-10-06T09:49:20.712Z,98918.13
2022-10-06T09:51:21.702Z,98905.84
2022-10-06T09:52:22.037Z,98915.73
2022-10-06T09:53:21.758Z,98918.91
2022-10-06T09:54:21.701Z,98914.62
2022-10-06T09:55:22.893Z,98919.06
2022-10-06T09:56:21.802Z,98916.12
2022-10-06T09:57:25.137Z,98918.69
2022-10-06T09:58:23.505Z,98920.09
2022-10-06T09:59:23.780Z,98917.91
2022-10-06T10:00:34.738Z,98927.34
2022-10-06T10:01:28.145Z,98924.8
2022-10-06T10:02:33.648Z,98927.27
2022-10-06T10:04:37.423Z,98929.41
2022-10-06T10:05:36.101Z,98924.72
2022-10-06T10:06:34.677Z,98921.63
2022-10-06T10:07:35.211Z,98921.91
2022-10-06T10:09:34.248Z,98921.44
2022-10-06T10:10:34.402Z,98915
2022-10-06T10:11:35.731Z,98920.7
2022-10-06T10:12:34.130Z,98911.89
2022-10-06T10:13:43.578Z,98917.2
2022-10-06T10:14:38.363Z,98916.82
2022-10-06T10:15:40.651Z,98912.22
2022-10-06T10:16:37.572Z,98912.7
2022-10-06T10:17:46.637Z,98917.17
2022-10-06T10:18:44.485Z,98919.31
2022-10-06T10:19:42.746Z,98917.61
2022-10-06T10:20:50.488Z,98920.98
2022-10-06T10:21:44.518Z,98920.78
2022-10-06T10:22:42.181Z,98917.42
2022-10-06T10:23:43.384Z,98919.75
2022-10-06T10:26:56.871Z,98923.74
2022-10-06T10:35:15.501Z,98943.46
2022-10-06T10:36:14.415Z,98945.05
2022-10-06T10:37:15.630Z,98949.02
2022-10-06T10:38:18.872Z,98948.03
2022-10-06T10:39:19.148Z,98943.45
2022-10-06T10:41:22.553Z,98946.41
2022-10-06T10:44:27.776Z,98947.78
2022-10-06T10:46:34.217Z,98956.64
2022-10-06T10:47:38.460Z,98950.8
2022-10-06T10:49:39.676Z,98953.08
2022-10-06T10:52:46.793Z,98946.26
2022-10-06T10:55:49.961Z,98954.34
2022-10-06T10:56:49.922Z,98949.92
2022-10-06T10:57:50.010Z,98950.97
2022-10-06T10:58:52.238Z,98950.8
2022-10-06T11:00:54.755Z,98949.8
2022-10-06T11:02:58.391Z,98959.23
2022-10-06T11:03:55.738Z,98956.98
2022-10-06T11:04:57.972Z,98959.89
2022-10-06T11:12:24.684Z,98952.52
2022-10-06T11:21:42.568Z,98945.2
2022-10-06T11:29:02.013Z,98956.03
2022-10-06T11:31:03.223Z,98951
2022-10-06T11:32:06.205Z,98963.12
2022-10-06T11:34:04.684Z,98952.52
2022-10-06T11:35:15.925Z,98955.05
2022-10-06T11:36:11.262Z,98950.16
2022-10-06T11:37:15.987Z,98953.45
2022-10-06T11:41:30.936Z,98951.43
2022-10-06T11:42:34.135Z,98955.12
2022-10-06T11:43:35.831Z,98961.91
2022-10-06T11:44:30.825Z,98964.98
2022-10-06T11:45:33.838Z,98972.09
2022-10-06T11:46:45.208Z,98963.85
2022-10-06T11:47:42.816Z,98952.53
2022-10-06T11:48:34.677Z,98962.41
2022-10-06T11:49:47.051Z,98966.78
2022-10-06T11:50:39.809Z,98955.38
2022-10-06T11:51:38.708Z,98958.04
2022-10-06T11:52:45.739Z,98966.27
2022-10-06T11:53:43.381Z,98957.88
2022-10-06T11:54:47.949Z,98977.46
2022-10-06T11:55:44.609Z,98964.45
2022-10-06T11:56:44.611Z,98960.17
2022-10-06T11:59:47.034Z,98972.78
2022-10-06T12:00:48.404Z,98977.83
2022-10-06T12:01:51.218Z,98969.81
2022-10-06T12:02:47.694Z,98973.06
2022-10-06T12:03:48.161Z,98975.42
2022-10-06T12:05:56.270Z,98986.09
2022-10-06T12:06:54.833Z,98980.47
2022-10-06T12:08:58.226Z,98983.89
2022-10-06T12:11:02.974Z,98987
2022-10-06T12:17:20.874Z,98969.99
2022-10-06T12:32:54.081Z,99003.05
2022-10-06T12:33:50.936Z,98981.91
2022-10-06T12:34:58.881Z,98985.48
2022-10-06T12:36:00.438Z,98979.53
2022-10-06T12:37:56.409Z,98984.61
2022-10-06T12:41:00.742Z,98992.7
2022-10-06T12:42:01.437Z,98978.53
2022-10-06T12:45:13.439Z,98990.55
2022-10-06T12:46:16.260Z,98992.25
2022-10-06T12:47:19.907Z,98992.05
2022-10-06T12:48:21.019Z,98987.2
2022-10-06T12:50:22.979Z,98985.59
2022-10-06T12:51:26.598Z,98996.55
2022-10-06T12:53:30.118Z,98987.38
2022-10-06T12:54:32.260Z,98989.62
2022-10-06T12:55:41.257Z,98982.8
2022-10-06T12:56:35.113Z,98985.75
2022-10-06T12:57:44.500Z,98985.09
2022-10-06T12:58:36.326Z,98993.61
2022-10-06T12:59:36.167Z,98988.45
2022-10-06T13:00:38.015Z,98988.45
2022-10-06T13:01:36.527Z,98993.8
2022-10-06T13:02:37.257Z,98989.25
2022-10-06T13:03:36.698Z,98991.92
2022-10-06T13:04:40.628Z,98998.33
2022-10-06T13:05:37.324Z,98990.89
2022-10-06T13:06:37.633Z,98994.5
2022-10-06T13:08:41.860Z,98985.39
2022-10-06T13:09:42.666Z,98989.3
2022-10-06T13:10:41.899Z,98997.42
2022-10-06T13:11:41.938Z,98981.38
2022-10-06T13:12:42.813Z,98983.3
2022-10-06T13:13:52.099Z,98983
2022-10-06T13:14:43.769Z,98977.09
2022-10-06T13:15:43.777Z,98977.31
2022-10-06T13:16:47.220Z,98985.94
2022-10-06T13:18:45.909Z,98982.17
2022-10-06T13:19:45.161Z,98971.32
2022-10-06T13:21:49.344Z,98981.03
2022-10-06T13:22:56.471Z,98989.27
2022-10-06T13:23:52.648Z,98985.8
2022-10-06T13:24:59.451Z,98985.67
2022-10-06T13:26:56.743Z,98974.56
2022-10-06T13:27:56.726Z,98972.91
2022-10-06T13:28:57.382Z,98989.44
2022-10-06T13:31:58.978Z,98985.7
2022-10-06T13:32:59.325Z,98984.17
2022-10-06T13:34:03.930Z,98979.36
2022-10-06T13:35:01.941Z,98984.41
2022-10-06T13:36:01.728Z,98990.2
2022-10-06T13:37:00.978Z,98987.09
2022-10-06T13:38:03.874Z,98988.22
2022-10-06T13:39:04.164Z,98982.34
2022-10-06T13:40:21.927Z,99002.88
2022-10-06T13:41:06.639Z,98996.98
2022-10-06T13:42:09.802Z,98992.16
2022-10-06T13:43:14.802Z,98989.06
2022-10-06T13:44:23.763Z,99003.52
2022-10-06T13:45:16.190Z,98995.97
2022-10-06T13:46:18.919Z,98994.63
2022-10-06T13:47:21.265Z,98998.3
2022-10-06T13:48:20.713Z,98990.61
2022-10-06T13:49:22.786Z,99004.66
2022-10-06T13:50:20.317Z,99005.05
2022-10-06T13:51:21.662Z,98995.69
2022-10-06T13:52:25.121Z,99002.33